NWS Home NWS Lubbock West Texas Mesonet Day over Day changes as of 0757 PM, Wed Jul 17, 2019

Latest   N   C   S   Daily Sum   3hrΔ   24hrΔ   Soil Data 
Site Map   24hr Precip   72hr Precip   Google Plot


Station Time of Last Temp Today Temp Yesterday Delta-T Dewpoint Today Dewpoint Yesterday Delta-Td Delta-Pressure (mB)
Reese Center  07:50 PM 92.9 94.5 -1.5 53.8 53.4 0.4 -0.6
Abernathy  07:50 PM 92.6 94.1 -1.5 53.4 50.7 2.8 -0.7
Plainview  07:50 PM 92.1 93.3 -1.2 55.5 54.2 1.3 -1.1
Tahoka  07:50 PM 93.3 93 0.3 57 54.4 2.5 -0.4
Slaton  07:50 PM 92.4 94.2 -1.8 56.3 53.3 3 -0.5
Levelland  07:50 PM 90.5 93.5 -3 55.5 49.1 6.3 -0.9
Roaring Springs  07:50 PM 91.5 93.1 -1.6 61.1 58.5 2.5 -0.8
Floydada  07:50 PM 91.5 93.2 -1.6 55.9 49.9 6.1 -0.9
Ralls  07:50 PM 91.6 94.3 -2.6 54.9 49.8 5.1 -0.6
Brownfield  04:05 PM M 98.1 M -17966.2 51.2 M M
Muleshoe  07:50 PM 89 91.8 -2.8 53.3 53 0.4 -1.4
Morton  07:50 PM 90.4 93.2 -2.8 51.3 48.6 2.7 -1
O'Donnell  07:50 PM 92.8 93.4 -0.6 53 47.9 5.1 -0.4
Seagraves  07:50 PM 93.1 94.8 -1.7 56.9 51.4 5.5 -0.6
Amherst  07:50 PM 89.9 90.4 -0.5 56.7 54.6 2.1 -1.2
Plains  07:50 PM 91.3 92.8 -1.5 56.9 50.6 6.4 -0.9
Lamesa  07:50 PM 92.4 94.4 -1.9 59.9 55.1 4.8 -0.3
Hart  07:50 PM 90.1 91.2 -1 55.5 55.9 -0.3 -1.5
Friona  07:50 PM 91.7 92.3 -0.6 53 51.5 1.5 -1.5
Dimmitt  07:50 PM 92.1 93.5 -1.4 54.7 53.9 0.8 -1.4
Tulia  07:50 PM 92 93.4 -1.4 55.7 55.8 -0.1 -1.3
Silverton  07:50 PM 92.5 94.5 -2 57.2 52.9 4.3 -1.2
Post  07:50 PM 93.6 96.4 -2.8 56.4 53.2 3.3 -0.2
Seminole  07:50 PM 92.8 94.4 -1.6 54.1 47.6 6.4 -0.7
Gail  07:50 PM 93.7 97.4 -3.7 58.7 55.5 3.2 -0.2
White River Lake  07:50 PM 93.4 96 -2.6 56.1 53.5 2.6 -0.4
Graham  07:50 PM 92.9 95.3 -2.5 57 53.2 3.8 -0.4
Sundown  07:50 PM 87.9 92 -4.1 55.4 49.5 5.8 -0.8
Anton  07:50 PM 92.8 94.6 -1.8 53.4 52.5 0.9 -0.8
Fluvanna  07:50 PM 91.9 94.6 -2.7 61.1 59.6 1.5 -0.2
Spur  07:50 PM 95.1 95.7 -0.6 58.8 52.2 6.6 -0.3
Northwest Lubbock  07:50 PM 93.4 94.8 -1.4 51.4 48.2 3.2 -0.5
Guthrie  07:50 PM 94.1 97.1 -3 57.3 55.7 1.6 -0.3
Clarendon  07:50 PM 94.6 85.9 8.7 57.1 65.3 -8.3 -2.2
Paducah  07:50 PM 93.5 95.6 -2.1 58.7 56.4 2.4 -0.6
Snyder  07:50 PM 91.5 93.3 -1.8 59.7 59.1 0.6 -0.1
Memphis  07:50 PM 95.3 95.3 0 59.4 54.3 5.1 -1.4
Jayton  07:50 PM 92.9 95.7 -2.8 62.6 58.4 4.2 0
Pampa  07:50 PM 92.7 77.5 15.2 58 61.9 -3.9 -2.2
Aspermont  07:50 PM 94.6 95.9 -1.3 63.5 62.6 0.9 -0.1
Hereford  07:50 PM 91.7 92.6 -1 54 51.5 2.6 -1.6
Goodlett  07:50 PM 96.4 98.7 -2.3 60.9 58.1 2.8 -0.7
McLean  07:50 PM 91.7 76.5 15.2 61.5 63.7 -2.1 -2.1
Denver City  07:50 PM 90.9 93.2 -2.4 50.5 44.5 6 -0.7
Lake Alan Henry  07:50 PM 93.6 96.8 -3.2 64.2 61.8 2.4 0
Wolfforth  07:50 PM 92.8 94.4 -1.6 54.7 53.7 1 -0.4
Andrews  07:50 PM 93.8 94.1 -0.3 56.3 49.5 6.8 -0.7
Turkey  07:50 PM 94.7 96.5 -1.8 61.2 53.9 7.3 -1.2
Childress  07:50 PM 94.6 96.8 -2.2 58.5 56.8 1.7 -1
Tatum  07:50 PM 80.2 93 -12.8 56.2 46.5 9.8 -0.2
Northfield  07:50 PM 95.4 96.6 -1.2 58.2 53.4 4.8 -1.1
Dora  07:50 PM 81.6 92.9 -11.3 65.7 49.2 16.5 -0.8
Northwest San Angelo  07:50 PM 92 93.2 -1.2 59 59.1 -0.2 -0.2
Saint Lawrence  07:50 PM 90.9 93 -2.1 60.4 58.1 2.3 0
Haskell  07:50 PM 92.8 94.5 -1.7 63.8 64.4 -0.6 -0.2
Wall  07:50 PM 93 94.9 -1.8 63.9 65.1 -1.2 -0
Seymour  07:50 PM 92.5 94.1 -1.6 65.9 67.3 -1.4 -0.2
Knox City  07:50 PM 96.8 97.4 -0.6 63.1 64.8 -1.7 -0.4
Guadalupe Mtns Park  07:50 PM 80.9 84.1 -3.2 53.1 48.9 4.2 -0.3
Caprock Canyons   07:50 PM 93.5 94.9 -1.5 58.6 54.2 4.4 -1.1
Odell  07:50 PM 93.8 96.3 -2.4 65.5 66.1 -0.6 -0.3
Coyanosa  07:50 PM 86.6 97.2 -10.6 61 60 1 1.2
Big Lake  04:42 AM 73 72.9 0.1 65.8 65.2 0.6 -0.6
Junction  07:50 PM 91.9 92.6 -0.7 65.6 65.8 -0.1 0.3
Hobbs  07:50 PM 81 93.2 -12.2 61 43.2 17.8 0.7
Canadian  07:50 PM 93.2 82.9 10.4 64.6 64.1 0.4 -2.1
Palo Duro Canyon State Park Rim  07:50 PM 93.7 94.4 -0.7 55.2 56.4 -1.2 -1.4
Bootleg  07:50 PM 90.3 89.8 0.5 55.7 53.4 2.3 -1.4
Sterling City  07:50 PM 92.9 95.2 -2.3 59.5 60.7 -1.2 -0.1
Mertzon  07:50 PM 91.5 93.4 -1.9 63.8 62.4 1.4 -0.1
Persimmon Gap  07:50 PM 74.4 94.4 -20 64.4 61.5 2.9 1.6
Weinert  07:50 PM 94.4 94.6 -0.3 65 66.8 -1.8 -0.3
Claude 12 Southwest  07:50 PM 94.1 93.9 0.1 55 56.4 -1.4 -1.4
Amarillo 7 South Southeast  07:50 PM 92.3 92.7 -0.4 54.2 55.6 -1.3 -1.5
Umbarger  07:50 PM 92.3 93.4 -1.1 54.9 55.7 -0.7 -1.5
Lomax  07:50 PM 94.1 96.7 -2.6 59.5 58.6 0.9 -0.1
Amarillo 9 North Northeast  07:50 PM 92.7 85.2 7.5 57.3 60.4 -3.1 -2.3
Aiken  07:50 PM 91.4 92.6 -1.2 60.8 57.1 3.6 -1.1
Sweetwater  07:50 PM 90 91.7 -1.7 62.5 61.4 1 -0.2
Dozier  07:50 PM 95.8 88 7.8 64.3 63.3 1.1 -1.8
Amarillo 15 North Northwest  07:50 PM 95.1 88.9 6.1 55.6 59.6 -4.1 -2.2
Menard  07:50 PM 90.2 90.6 -0.4 66.5 67.3 -0.8 0.2
Tarzan  07:50 PM 93.4 95.7 -2.3 63.8 58 5.8 -0.4
Goodnight  07:50 PM 94.4 83.5 10.9 59.6 64.4 -4.8 -2.7
Boys Ranch   07:50 PM 94.7 95.2 -0.5 57.9 57.3 0.6 -1.7
Fort McKavett  07:50 PM 91 91.8 -0.8 64.2 65.4 -1.3 0
Fort Chadbourne  07:50 PM 91.6 93.4 -1.7 64.4 65.5 -1.2 -0.1
Palo Duro Canyon State Park Floor  07:50 PM 97.2 98 -0.8 57.6 57.4 0.2 -1.3
Fort Lancaster  07:50 PM 92.5 93.6 -1.1 64 66.9 -3 0.2
Dell City 1N  07:50 PM 89.1 92 -2.9 59.8 55.7 4.2 0.5
Clyde  07:50 PM 90.8 90.3 0.5 64.4 68.2 -3.8 -0.5
Snyder SSW  07:50 PM 92.7 94.7 -2 61.5 62.9 -1.4 -0.1
Panhandle  07:50 PM 89.7 74.7 14.9 58.2 63.6 -5.3 -2.8
Vigo Park  07:50 PM 92.6 93.7 -1.2 56.8 56.9 -0.1 -1.3
Welch  07:50 PM 93.4 94.8 -1.4 61.4 56.2 5.2 -0.5
Throckmorton  07:50 PM 92.8 93.2 -0.4 68.2 68.4 -0.2 -0.1
Sierra Blanca  07:50 PM 82.2 94 -11.8 58 46.9 11.1 0.9
Fort Lewis CO  07:50 PM 78.7 80 -1.2 36.5 45.1 -8.7 1.6
New Home  07:50 PM 93.3 94.2 -0.9 55.6 55.3 0.3 -0.5
McCamey  07:50 PM 93.1 95.3 -2.1 64 63.2 0.8 0.3
Stamford  07:50 PM 94.6 95.2 -0.6 65.2 66.3 -1.1 -0.3
Crowell  07:50 PM 94.5 96.5 -2.1 67.1 66.3 0.8 -0.5
Stinnett  07:50 PM 94.1 85.2 8.9 55.4 61.2 -5.8 -2.2
Colorado City  07:50 PM 92.7 93.5 -0.8 62.2 63.5 -1.4 -0.1
Happy  07:50 PM 93.2 93.3 -0.1 55.4 56.2 -0.8 -1.4
Endee  07:50 PM 94.1 95.4 -1.3 57 52.2 4.8 -1.5
JA Ranch  07:50 PM 97.4 96.5 0.9 59 57.7 1.3 -1.7
Adrian  07:50 PM 92 92.7 -0.6 56.2 53.6 2.6 -1.5
Lesley  07:50 PM 96.8 96.3 0.5 63.4 58.6 4.8 -1.4
Earth  07:50 PM 90.8 93 -2.3 54.3 55.8 -1.5 -1.3
Van Horn  07:50 PM 73.7 95.9 -22.2 67.2 48.4 18.9 1.2
Rotan  07:50 PM 92.7 95.4 -2.7 63.8 61.2 2.6 0.1
Fritch  07:50 PM 95.5 88.9 6.5 55 59.8 -4.9 -1.7
Estelline  07:50 PM 96.2 97 -0.8 62.2 58.8 3.4 -1.3
Crane  07:50 PM 92.9 96.2 -3.3 62.9 60.4 2.6 0.2
Hackberry  07:50 PM 94.8 96.8 -1.9 64.6 62.7 2 -0.6
Romero 11 SSW  07:50 PM 96.3 95.6 0.7 56.4 51.6 4.7 -1.5
Palo Duro Reservoir 1NW  07:50 PM 94.9 87.9 7.1 57.8 61.6 -3.8 -2.1
South Plains 3ENE  07:50 PM 91.8 93.8 -2.1 61 56.2 4.8 -1.1
Lake McClellan 2NW  07:50 PM 90.7 74.5 16.3 61.4 60.5 1 -4.8
Segovia 7SSW  07:50 PM 88.3 88.8 -0.6 65.2 65.7 -0.5 0.1
Castolon 1NW BBNP  07:50 PM 78.5 101.3 -22.8 68.7 60.4 8.2 1.9
Smyer  07:50 PM 92.2 94.1 -1.9 55.4 54 1.4 -0.7
Olton  07:50 PM 90.9 92.1 -1.2 52.9 51.7 1.2 -1.1

West Texas Mesonet Home   Site Map/Menu  NWS Lubbock Soil Data  Daily Summary Page  24hr Precip  72hr Precip  Google Plot